Redwood City, CA (94065)

12:58 PM PDT on September 23, 2014 (GMT -0700)
Neighborhood 4 | Change Station
CLOSE
Current Station
Personal Weather Station
Location: Foster City, CA
Elevation: 12 ft
Nearby Weather Stations

Elev 12 ft 37.55 °N, 122.26 °W | Updated 8 seconds ago

Partly Cloudy
Partly Cloudy
74.4 °F
Feels Like 76 °F
N
2.0
Wind Variable Wind from North
Gusts 4.0 mph

Today
High -- | Low -- °F
--% Chance of Precip.
Yesterday
High -- | Low -- °F
Precip. -- in
6:57 AM 7:04 PM
Waning Crescent, 0% visible
Pressure 30.00 in
Visibility 10.0 miles
Clouds Few 15000 ft
Heat Index 76 °F
Dew Point 63 °F
Humidity 68%
Rainfall 0.00 in
Snow Depth 1 in , 0 in , 0 in
UV 6.5 out of 12
Pollen 3.80 out of 12
PM2.5 Good
Flu Activity Not available.
METAR KSQL 231947Z 01006KT 10SM FEW150 21/16 A3000

More Conditions Fewer Conditions

Pressure 30.00 in
Visibility 10.0 miles
Clouds Few 15000 ft
Heat Index 76 °F
Dew Point 63 °F
Humidity 68%
Rainfall 0.00 in
Snow Depth 1 in , 0 in , 0 in
UV 6.5 out of 12
Pollen 3.80 out of 12
PM2.5 Good
Flu Activity Not available.
METAR KSQL 231947Z 01006KT 10SM FEW150 21/16 A3000

More Conditions Fewer Conditions

10-Day Weather Forecast

Almanac

Astronomy

Sep. 23, 2014 Rise Set
Actual Time 6:57 AM PDT 7:04 PM PDT
Civil Twilight 6:31 AM PDT 7:30 PM PDT
Nautical Twilight 6:01 AM PDT 8:00 PM PDT
Astronomical Twilight 5:30 AM PDT 8:31 PM PDT
Moon 6:27 AM PDT 6:46 PM PDT
Length of Visible Light 12h 58m
Length of Day
12h 06m
Tomorrow will be 2m 23s shorter.
Waning Crescent, 0% of the Moon is Illuminated
Today
Waning Crescent
Sep 24
New
Oct 1
First Quarter
Oct 8
Full
Oct 15
Last Quarter

Today's Extremes

State Highs State Lows

Community

WunderPhotos

Upload Photos

1,755,788 photos uploaded!

WunderBlogs® & News

Nearby

Air Quality

  Air Quality AQ Index Pollutant
Yesterday Good
OZONE
Yesterday Good
PM2.5
Current Good
PM2.5
Tuesday Good
PM2.5
Wednesday Good
OZONE
Thursday Good
OZONE
Friday Good
OZONE
Saturday Good
OZONE
Sunday Good
OZONE

Snow Depth

Station Depth Elevation
Monitor Pass 1 in 8350 ft
Rubicon #2 0 in 7500 ft
Leavitt Meadows 0 in 7200 ft
Burnside Lake 0 in 8139 ft
Adin Mountain 0 in 6200 ft

Earthquake Activity

City Distance Mag. Time & Date
Yountville, California 56 miles 2.6 1:17 PM PDT
2014-09-21
Minimum magnitude displayed is 2.5.

Coastal Water Temperatures

Place Temperature
No Stations Reporting

Nearby Weather Stations